Weather History for Ozona, TX

Change the Weather History Date:

Sunday, November 18, 2012

  Actual Average Record
Temperature  
Mean Temperature 58 °F -  
Max Temperature 62 °F 67 °F 69 °F (2013)
Min Temperature 53 °F 41 °F 23 °F (2014)
Degree Days  
Heating Degree Days 8    
Growing Degree Days 8 (Base 50)    
Moisture  
Dew Point 46 °F    
Average Humidity 66    
Maximum Humidity 94    
Minimum Humidity 48    
Precipitation  
Precipitation 0.00 in - - ()
Sea Level Pressure  
Sea Level Pressure 30.21 in    
Wind  
Wind Speed 11 mph (South)    
Max Wind Speed 23 mph    
Max Gust Speed 30 mph    
Visibility 10 miles    
Events Rain    
Averages and records for this station are not official NWS values.
T = Trace of Precipitation, MM = Missing Value Source: NWS Daily Summary

Daily Weather History Graph

Daily Weather History Graph

Search for Another Location

Airport:

Trip Planner

Search our weather history database for the weather conditions in past years. The results will help you decide how hot, cold, wet, or windy it might be!

Date:

Astronomy

Nov. 18, 2012 Rise Set
Actual Time 7:14 AM CST 5:45 PM CST
Civil Twilight 6:48 AM CST 6:11 PM CST
Nautical Twilight 6:19 AM CST 6:40 PM CST
Astronomical Twilight 5:50 AM CST 7:09 PM CST
Moon 11:46 AM CST (11/18) 11:01 PM CST (11/18)
Length of Visible Light 11h 22m
Length of Day
10h 31m
Waxing Crescent, 30% of the Moon is Illuminated
Nov 18
Waxing Crescent
Nov 20
First Quarter
Nov 28
Full
Dec 6
Last Quarter
Dec 13
New

Hourly Weather History & Observations

Time (CST) Temp. Dew Point Humidity Pressure Visibility Wind Dir Wind Speed Gust Speed Precip Events Conditions
12:15 AM 57.2 °F 37.4 °F 48% 30.23 in 10.0 mi South 11.5 mph 16.1 mph N/A   Clear
12:35 AM 57.2 °F 37.4 °F 48% 30.23 in 10.0 mi South 10.4 mph 16.1 mph N/A   Clear
12:55 AM 55.4 °F 37.4 °F 51% 30.22 in 10.0 mi South 10.4 mph 16.1 mph N/A   Clear
1:15 AM 55.4 °F 37.4 °F 51% 30.21 in 10.0 mi South 9.2 mph 17.3 mph N/A   Clear
1:35 AM 55.4 °F 37.4 °F 51% 30.21 in 10.0 mi South 10.4 mph - N/A   Clear
1:55 AM 55.4 °F 37.4 °F 51% 30.21 in 10.0 mi South 6.9 mph - N/A   Clear
2:15 AM 55.4 °F 39.2 °F 54% 30.21 in 10.0 mi South 8.1 mph - N/A   Clear
2:35 AM 55.4 °F 39.2 °F 54% 30.20 in 10.0 mi South 6.9 mph - N/A   Clear
2:55 AM 55.4 °F 39.2 °F 54% 30.19 in 10.0 mi South 8.1 mph 16.1 mph N/A   Clear
3:15 AM 55.4 °F 39.2 °F 54% 30.19 in 10.0 mi South 11.5 mph - N/A   Clear
3:35 AM 55.4 °F 41.0 °F 58% 30.19 in 10.0 mi South 11.5 mph - N/A   Clear
3:55 AM 55.4 °F 41.0 °F 58% 30.19 in 10.0 mi South 12.7 mph 19.6 mph N/A   Clear
4:15 AM 55.4 °F 41.0 °F 58% 30.18 in 10.0 mi South 13.8 mph 18.4 mph N/A   Clear
4:35 AM 55.4 °F 41.0 °F 58% 30.20 in 10.0 mi South 9.2 mph 16.1 mph N/A   Clear
4:55 AM 53.6 °F 41.0 °F 62% 30.19 in 10.0 mi South 6.9 mph - N/A   Clear
5:15 AM 53.6 °F 41.0 °F 62% 30.18 in 10.0 mi South 10.4 mph - N/A   Clear
5:35 AM 53.6 °F 41.0 °F 62% 30.18 in 10.0 mi SSE 9.2 mph - N/A   Clear
5:55 AM 53.6 °F 41.0 °F 62% 30.20 in 10.0 mi South 6.9 mph - N/A   Clear
6:15 AM 53.6 °F 41.0 °F 62% 30.19 in 10.0 mi South 9.2 mph - N/A   Clear
6:35 AM 53.6 °F 41.0 °F 62% 30.19 in 10.0 mi South 9.2 mph - N/A   Clear
6:55 AM 53.6 °F 42.8 °F 67% 30.19 in 10.0 mi South 9.2 mph - N/A   Scattered Clouds
7:15 AM 53.6 °F 42.8 °F 67% 30.20 in 10.0 mi South 10.4 mph - N/A   Clear
7:35 AM 53.6 °F 42.8 °F 67% 30.22 in 10.0 mi SSW 11.5 mph 16.1 mph N/A   Clear
7:55 AM 53.6 °F 42.8 °F 67% 30.23 in 10.0 mi South 9.2 mph - N/A   Clear
8:15 AM 53.6 °F 42.8 °F 67% 30.22 in 10.0 mi SSE 9.2 mph - N/A   Clear
8:35 AM 53.6 °F 44.6 °F 72% 30.23 in 10.0 mi South 6.9 mph - N/A Rain Light Rain
8:55 AM 55.4 °F 44.6 °F 67% 30.23 in 10.0 mi South 10.4 mph - N/A   Clear
9:15 AM 57.2 °F 44.6 °F 63% 30.23 in 10.0 mi South 18.4 mph 21.9 mph N/A   Clear
9:35 AM 55.4 °F 46.4 °F 72% 30.24 in 10.0 mi South 13.8 mph 21.9 mph N/A Rain Rain
9:55 AM 55.4 °F 46.4 °F 72% 30.23 in 10.0 mi SSE 12.7 mph 18.4 mph N/A   Clear
10:15 AM 59.0 °F 46.4 °F 63% 30.22 in 10.0 mi South 17.3 mph 23.0 mph N/A   Clear
10:35 AM 60.8 °F 48.2 °F 63% 30.22 in 10.0 mi South 20.7 mph 29.9 mph N/A   Clear
10:55 AM 60.8 °F 48.2 °F 63% 30.22 in 10.0 mi South 23.0 mph - N/A   Clear
11:15 AM 62.6 °F 48.2 °F 59% 30.25 in 10.0 mi South 21.9 mph 28.8 mph N/A   Clear
11:35 AM 60.8 °F 48.2 °F 63% 30.22 in 10.0 mi South 17.3 mph 24.2 mph N/A   Clear
11:55 AM 60.8 °F 48.2 °F 63% 30.22 in 10.0 mi South 15.0 mph 21.9 mph N/A   Clear
12:15 PM 60.8 °F 48.2 °F 63% 30.22 in 10.0 mi South 15.0 mph 21.9 mph N/A   Clear
12:35 PM 62.6 °F 50.0 °F 63% 30.21 in 10.0 mi South 16.1 mph - N/A   Clear
12:55 PM 62.6 °F 50.0 °F 63% 30.20 in 10.0 mi South 12.7 mph 18.4 mph N/A   Clear
1:15 PM 62.6 °F 50.0 °F 63% 30.20 in 10.0 mi SSW 13.8 mph - N/A   Clear
1:35 PM 62.6 °F 50.0 °F 63% 30.19 in 10.0 mi South 13.8 mph 20.7 mph N/A   Clear
1:55 PM 62.6 °F 50.0 °F 63% 30.18 in 10.0 mi South 16.1 mph 24.2 mph N/A   Clear
2:15 PM 62.6 °F 50.0 °F 63% 30.17 in 10.0 mi South 15.0 mph 19.6 mph N/A   Clear
2:35 PM 62.6 °F 50.0 °F 63% 30.16 in 10.0 mi South 13.8 mph - N/A   Clear
2:55 PM 62.6 °F 50.0 °F 63% 30.16 in 10.0 mi South 18.4 mph 24.2 mph N/A   Clear
3:15 PM 62.6 °F 50.0 °F 63% 30.17 in 10.0 mi South 16.1 mph 21.9 mph N/A   Clear
3:35 PM 62.6 °F 50.0 °F 63% 30.16 in 10.0 mi South 12.7 mph 23.0 mph N/A   Clear
3:55 PM 62.6 °F 50.0 °F 63% 30.17 in 10.0 mi South 13.8 mph 20.7 mph N/A   Clear
4:15 PM 62.6 °F 50.0 °F 63% 30.18 in 10.0 mi South 8.1 mph 16.1 mph N/A   Scattered Clouds
4:35 PM 62.6 °F 50.0 °F 63% 30.19 in 10.0 mi South 10.4 mph - N/A   Scattered Clouds
4:55 PM 62.6 °F 50.0 °F 63% 30.20 in 10.0 mi South 15.0 mph 19.6 mph N/A   Scattered Clouds
5:15 PM 62.6 °F 50.0 °F 63% 30.20 in 10.0 mi South 11.5 mph - N/A   Scattered Clouds
5:35 PM 62.6 °F 50.0 °F 63% 30.20 in 10.0 mi SSE 12.7 mph - N/A   Scattered Clouds
5:55 PM 62.6 °F 50.0 °F 63% 30.21 in 10.0 mi South 12.7 mph 16.1 mph N/A   Scattered Clouds
6:15 PM 60.8 °F 50.0 °F 68% 30.21 in 10.0 mi South 9.2 mph - N/A   Scattered Clouds
6:35 PM 60.8 °F 50.0 °F 68% 30.21 in 10.0 mi South 12.7 mph - N/A   Scattered Clouds
6:55 PM 60.8 °F 50.0 °F 68% 30.21 in 10.0 mi South 11.5 mph 18.4 mph N/A   Clear
7:15 PM 60.8 °F 50.0 °F 68% 30.21 in 10.0 mi South 11.5 mph 16.1 mph N/A   Clear
7:35 PM 59.0 °F 50.0 °F 72% 30.22 in 10.0 mi South 8.1 mph - N/A   Clear
7:55 PM 59.0 °F 50.0 °F 72% 30.22 in 10.0 mi South 9.2 mph - N/A   Clear
8:15 PM 59.0 °F 51.8 °F 77% 30.21 in 10.0 mi South 9.2 mph - N/A   Clear
8:35 PM 59.0 °F 51.8 °F 77% 30.23 in 10.0 mi South 5.8 mph - N/A   Clear
8:55 PM 57.2 °F 51.8 °F 82% 30.23 in 10.0 mi South 5.8 mph - N/A   Clear
9:15 PM 57.2 °F 51.8 °F 82% 30.23 in 10.0 mi South 5.8 mph - N/A   Clear
9:35 PM 55.4 °F 51.8 °F 88% 30.24 in 10.0 mi Calm Calm - N/A   Clear
9:55 PM 55.4 °F 51.8 °F 88% 30.23 in 10.0 mi Calm Calm - N/A   Clear
10:15 PM 53.6 °F 50.0 °F 88% 30.22 in 10.0 mi South 4.6 mph - N/A   Clear
10:35 PM 53.6 °F 50.0 °F 88% 30.23 in 10.0 mi Calm Calm - N/A   Clear
11:15 PM 53.6 °F 51.8 °F 94% 30.23 in 10.0 mi WSW 3.5 mph - N/A   Clear
11:35 PM 53.6 °F 50.0 °F 88% 30.22 in 10.0 mi Calm Calm - N/A   Clear
11:55 PM 53.6 °F 50.0 °F 88% 30.22 in 10.0 mi Calm Calm - N/A   Clear